sensor_id;sensor_type;location;lat;lon;timestamp;temperature;humidity
21646;DHT22;10984;45.712;4.800;2022-10-16T00:01:31;14.40;99.90
21646;DHT22;10984;45.712;4.800;2022-10-16T00:03:58;14.40;99.90
21646;DHT22;10984;45.712;4.800;2022-10-16T00:06:25;14.40;99.90
21646;DHT22;10984;45.712;4.800;2022-10-16T00:08:52;14.40;99.90
21646;DHT22;10984;45.712;4.800;2022-10-16T00:11:29;14.50;99.90
21646;DHT22;10984;45.712;4.800;2022-10-16T00:13:58;14.50;99.90
21646;DHT22;10984;45.712;4.800;2022-10-16T00:16:24;14.50;99.90
21646;DHT22;10984;45.712;4.800;2022-10-16T00:18:50;14.60;99.90
21646;DHT22;10984;45.712;4.800;2022-10-16T00:24:04;14.60;99.90
21646;DHT22;10984;45.712;4.800;2022-10-16T00:26:32;14.70;99.90
21646;DHT22;10984;45.712;4.800;2022-10-16T00:28:59;14.70;99.90
21646;DHT22;10984;45.712;4.800;2022-10-16T00:31:25;14.70;99.90
21646;DHT22;10984;45.712;4.800;2022-10-16T00:33:51;14.80;99.90
21646;DHT22;10984;45.712;4.800;2022-10-16T00:36:19;14.80;99.90
21646;DHT22;10984;45.712;4.800;2022-10-16T00:38:45;14.90;99.90
21646;DHT22;10984;45.712;4.800;2022-10-16T00:41:13;14.90;99.90
21646;DHT22;10984;45.712;4.800;2022-10-16T00:43:59;14.90;99.90
21646;DHT22;10984;45.712;4.800;2022-10-16T00:46:29;15.00;99.90
21646;DHT22;10984;45.712;4.800;2022-10-16T00:51:46;15.10;99.90
21646;DHT22;10984;45.712;4.800;2022-10-16T00:54:15;15.10;99.90
21646;DHT22;10984;45.712;4.800;2022-10-16T00:56:42;15.20;99.90
21646;DHT22;10984;45.712;4.800;2022-10-16T00:59:16;15.20;99.90
21646;DHT22;10984;45.712;4.800;2022-10-16T01:01:41;15.30;99.90
21646;DHT22;10984;45.712;4.800;2022-10-16T01:04:07;15.30;99.90
21646;DHT22;10984;45.712;4.800;2022-10-16T01:18:46;15.60;99.90
21646;DHT22;10984;45.712;4.800;2022-10-16T01:27:28;15.60;99.90
21646;DHT22;10984;45.712;4.800;2022-10-16T01:30:20;15.50;99.90
21646;DHT22;10984;45.712;4.800;2022-10-16T01:36:11;15.50;99.90
21646;DHT22;10984;45.712;4.800;2022-10-16T01:38:39;15.60;99.90
21646;DHT22;10984;45.712;4.800;2022-10-16T01:44:28;15.60;99.90
21646;DHT22;10984;45.712;4.800;2022-10-16T01:46:55;15.50;99.90
21646;DHT22;10984;45.712;4.800;2022-10-16T01:49:23;15.50;99.90
21646;DHT22;10984;45.712;4.800;2022-10-16T01:51:53;15.50;99.90
21646;DHT22;10984;45.712;4.800;2022-10-16T01:54:23;15.50;99.90
21646;DHT22;10984;45.712;4.800;2022-10-16T01:56:50;15.50;99.90
21646;DHT22;10984;45.712;4.800;2022-10-16T01:59:19;15.60;99.90
21646;DHT22;10984;45.712;4.800;2022-10-16T02:02:06;15.50;99.90
21646;DHT22;10984;45.712;4.800;2022-10-16T02:04:38;15.50;99.90
21646;DHT22;10984;45.712;4.800;2022-10-16T02:07:05;15.50;99.90
21646;DHT22;10984;45.712;4.800;2022-10-16T02:09:33;15.40;99.90
21646;DHT22;10984;45.712;4.800;2022-10-16T02:12:01;15.40;99.90
21646;DHT22;10984;45.712;4.800;2022-10-16T02:14:29;15.30;99.90
21646;DHT22;10984;45.712;4.800;2022-10-16T02:16:55;15.20;99.90
21646;DHT22;10984;45.712;4.800;2022-10-16T02:19:22;15.10;99.90
21646;DHT22;10984;45.712;4.800;2022-10-16T02:21:51;15.10;99.90
21646;DHT22;10984;45.712;4.800;2022-10-16T02:30:28;15.00;99.90
21646;DHT22;10984;45.712;4.800;2022-10-16T02:32:56;14.90;99.90
21646;DHT22;10984;45.712;4.800;2022-10-16T02:35:24;14.90;99.90
21646;DHT22;10984;45.712;4.800;2022-10-16T02:37:51;14.90;99.90
21646;DHT22;10984;45.712;4.800;2022-10-16T02:40:17;14.80;99.90
21646;DHT22;10984;45.712;4.800;2022-10-16T02:42:43;14.70;99.90
21646;DHT22;10984;45.712;4.800;2022-10-16T02:45:10;14.70;99.90
21646;DHT22;10984;45.712;4.800;2022-10-16T02:47:36;14.60;99.90
21646;DHT22;10984;45.712;4.800;2022-10-16T02:50:03;14.50;99.90
21646;DHT22;10984;45.712;4.800;2022-10-16T02:52:29;14.50;99.90
21646;DHT22;10984;45.712;4.800;2022-10-16T02:54:54;14.40;99.90
21646;DHT22;10984;45.712;4.800;2022-10-16T02:57:20;14.40;99.90
21646;DHT22;10984;45.712;4.800;2022-10-16T02:59:46;14.40;99.90
21646;DHT22;10984;45.712;4.800;2022-10-16T03:02:12;14.40;99.90
21646;DHT22;10984;45.712;4.800;2022-10-16T03:04:38;14.50;99.90
21646;DHT22;10984;45.712;4.800;2022-10-16T03:07:03;14.50;99.90
21646;DHT22;10984;45.712;4.800;2022-10-16T03:09:29;14.50;99.90
21646;DHT22;10984;45.712;4.800;2022-10-16T03:11:55;14.50;99.90
21646;DHT22;10984;45.712;4.800;2022-10-16T03:14:21;14.60;99.90
21646;DHT22;10984;45.712;4.800;2022-10-16T03:16:46;14.60;99.90
21646;DHT22;10984;45.712;4.800;2022-10-16T03:19:12;14.60;99.90
21646;DHT22;10984;45.712;4.800;2022-10-16T03:21:37;14.60;99.90
21646;DHT22;10984;45.712;4.800;2022-10-16T03:24:03;14.60;99.90
21646;DHT22;10984;45.712;4.800;2022-10-16T03:26:29;14.60;99.90
21646;DHT22;10984;45.712;4.800;2022-10-16T03:28:55;14.70;99.90
21646;DHT22;10984;45.712;4.800;2022-10-16T03:31:21;14.60;99.90
21646;DHT22;10984;45.712;4.800;2022-10-16T03:33:47;14.70;99.90
21646;DHT22;10984;45.712;4.800;2022-10-16T03:36:12;14.70;99.90
21646;DHT22;10984;45.712;4.800;2022-10-16T03:38:38;14.70;99.90
21646;DHT22;10984;45.712;4.800;2022-10-16T03:41:04;14.70;99.90
21646;DHT22;10984;45.712;4.800;2022-10-16T03:43:29;14.70;99.90
21646;DHT22;10984;45.712;4.800;2022-10-16T03:45:55;14.80;99.90
21646;DHT22;10984;45.712;4.800;2022-10-16T03:48:20;14.80;99.90
21646;DHT22;10984;45.712;4.800;2022-10-16T03:50:46;14.80;99.90
21646;DHT22;10984;45.712;4.800;2022-10-16T03:53:14;14.80;99.90
21646;DHT22;10984;45.712;4.800;2022-10-16T03:55:42;14.80;99.90
21646;DHT22;10984;45.712;4.800;2022-10-16T03:58:08;14.80;99.90
21646;DHT22;10984;45.712;4.800;2022-10-16T04:00:33;14.80;99.90
21646;DHT22;10984;45.712;4.800;2022-10-16T04:03:00;14.80;99.90
21646;DHT22;10984;45.712;4.800;2022-10-16T04:05:26;14.80;99.90
21646;DHT22;10984;45.712;4.800;2022-10-16T04:07:52;14.80;99.90
21646;DHT22;10984;45.712;4.800;2022-10-16T04:10:17;14.80;99.90
21646;DHT22;10984;45.712;4.800;2022-10-16T04:12:43;14.80;99.90
21646;DHT22;10984;45.712;4.800;2022-10-16T04:15:09;14.80;99.90
21646;DHT22;10984;45.712;4.800;2022-10-16T04:17:35;14.80;99.90
21646;DHT22;10984;45.712;4.800;2022-10-16T04:20:01;14.80;99.90
21646;DHT22;10984;45.712;4.800;2022-10-16T04:22:26;14.90;99.90
21646;DHT22;10984;45.712;4.800;2022-10-16T04:24:52;14.90;99.90
21646;DHT22;10984;45.712;4.800;2022-10-16T04:27:17;15.00;99.90
21646;DHT22;10984;45.712;4.800;2022-10-16T04:29:43;15.00;99.90
21646;DHT22;10984;45.712;4.800;2022-10-16T04:32:09;15.10;99.90
21646;DHT22;10984;45.712;4.800;2022-10-16T04:34:35;15.10;99.90
21646;DHT22;10984;45.712;4.800;2022-10-16T04:37:00;15.10;99.90
21646;DHT22;10984;45.712;4.800;2022-10-16T04:39:26;15.20;99.90
21646;DHT22;10984;45.712;4.800;2022-10-16T04:41:51;15.30;99.90
21646;DHT22;10984;45.712;4.800;2022-10-16T04:44:17;15.50;99.90
21646;DHT22;10984;45.712;4.800;2022-10-16T04:46:43;15.50;99.90
21646;DHT22;10984;45.712;4.800;2022-10-16T04:49:09;15.50;99.90
21646;DHT22;10984;45.712;4.800;2022-10-16T04:51:35;15.50;99.90
21646;DHT22;10984;45.712;4.800;2022-10-16T04:54:01;15.50;99.90
21646;DHT22;10984;45.712;4.800;2022-10-16T04:56:27;15.60;99.90
21646;DHT22;10984;45.712;4.800;2022-10-16T04:58:52;15.60;99.90
21646;DHT22;10984;45.712;4.800;2022-10-16T05:01:18;15.80;99.90
21646;DHT22;10984;45.712;4.800;2022-10-16T05:03:44;15.70;99.90
21646;DHT22;10984;45.712;4.800;2022-10-16T05:06:09;15.70;99.90
21646;DHT22;10984;45.712;4.800;2022-10-16T05:08:35;15.70;99.90
21646;DHT22;10984;45.712;4.800;2022-10-16T05:11:00;15.70;99.90
21646;DHT22;10984;45.712;4.800;2022-10-16T05:13:27;15.80;99.90
21646;DHT22;10984;45.712;4.800;2022-10-16T05:15:53;15.70;99.90
21646;DHT22;10984;45.712;4.800;2022-10-16T05:18:18;15.70;99.90
21646;DHT22;10984;45.712;4.800;2022-10-16T05:20:44;15.70;99.90
21646;DHT22;10984;45.712;4.800;2022-10-16T05:23:10;15.80;99.90
21646;DHT22;10984;45.712;4.800;2022-10-16T05:25:37;15.70;99.90
21646;DHT22;10984;45.712;4.800;2022-10-16T05:28:03;15.80;99.90
21646;DHT22;10984;45.712;4.800;2022-10-16T05:30:29;15.70;99.90
21646;DHT22;10984;45.712;4.800;2022-10-16T05:32:54;15.70;99.90
21646;DHT22;10984;45.712;4.800;2022-10-16T05:35:21;15.70;99.90
21646;DHT22;10984;45.712;4.800;2022-10-16T05:37:47;15.70;99.90
21646;DHT22;10984;45.712;4.800;2022-10-16T05:40:13;15.70;99.90
21646;DHT22;10984;45.712;4.800;2022-10-16T05:42:39;15.70;99.90
21646;DHT22;10984;45.712;4.800;2022-10-16T05:45:06;15.70;99.90
21646;DHT22;10984;45.712;4.800;2022-10-16T05:47:32;15.70;99.90
21646;DHT22;10984;45.712;4.800;2022-10-16T05:49:58;15.70;99.90
21646;DHT22;10984;45.712;4.800;2022-10-16T05:52:23;15.70;99.90
21646;DHT22;10984;45.712;4.800;2022-10-16T05:54:49;15.80;99.90
21646;DHT22;10984;45.712;4.800;2022-10-16T05:57:15;15.80;99.90
21646;DHT22;10984;45.712;4.800;2022-10-16T05:59:40;15.90;99.90
21646;DHT22;10984;45.712;4.800;2022-10-16T06:02:08;16.00;99.90
21646;DHT22;10984;45.712;4.800;2022-10-16T06:04:34;16.10;99.90
21646;DHT22;10984;45.712;4.800;2022-10-16T06:07:00;16.10;99.90
21646;DHT22;10984;45.712;4.800;2022-10-16T06:09:43;16.10;99.90
21646;DHT22;10984;45.712;4.800;2022-10-16T06:12:09;16.10;99.90
21646;DHT22;10984;45.712;4.800;2022-10-16T06:14:35;16.10;99.90
21646;DHT22;10984;45.712;4.800;2022-10-16T06:17:00;16.10;99.90
21646;DHT22;10984;45.712;4.800;2022-10-16T06:19:26;16.10;99.90
21646;DHT22;10984;45.712;4.800;2022-10-16T06:21:52;16.10;99.90
21646;DHT22;10984;45.712;4.800;2022-10-16T06:24:17;16.10;99.90
21646;DHT22;10984;45.712;4.800;2022-10-16T06:26:43;16.10;99.90
21646;DHT22;10984;45.712;4.800;2022-10-16T06:29:09;16.10;99.90
21646;DHT22;10984;45.712;4.800;2022-10-16T06:31:34;16.10;99.90
21646;DHT22;10984;45.712;4.800;2022-10-16T06:34:00;16.20;99.90
21646;DHT22;10984;45.712;4.800;2022-10-16T06:36:26;16.30;99.90
21646;DHT22;10984;45.712;4.800;2022-10-16T06:38:52;16.40;99.90
21646;DHT22;10984;45.712;4.800;2022-10-16T06:41:20;16.50;99.90
21646;DHT22;10984;45.712;4.800;2022-10-16T06:43:46;16.50;99.90
21646;DHT22;10984;45.712;4.800;2022-10-16T06:46:14;16.70;99.90
21646;DHT22;10984;45.712;4.800;2022-10-16T06:48:40;16.80;99.90
21646;DHT22;10984;45.712;4.800;2022-10-16T06:51:09;17.00;99.90
21646;DHT22;10984;45.712;4.800;2022-10-16T06:53:38;17.10;99.90
21646;DHT22;10984;45.712;4.800;2022-10-16T06:56:27;17.30;99.90
21646;DHT22;10984;45.712;4.800;2022-10-16T06:58:53;17.50;99.90
21646;DHT22;10984;45.712;4.800;2022-10-16T07:01:22;17.70;99.90
21646;DHT22;10984;45.712;4.800;2022-10-16T07:03:49;17.90;99.90
21646;DHT22;10984;45.712;4.800;2022-10-16T07:06:18;18.00;99.90
21646;DHT22;10984;45.712;4.800;2022-10-16T07:08:45;18.20;99.90
21646;DHT22;10984;45.712;4.800;2022-10-16T07:11:29;18.30;99.90
21646;DHT22;10984;45.712;4.800;2022-10-16T07:13:55;18.40;99.90
21646;DHT22;10984;45.712;4.800;2022-10-16T07:16:23;18.50;99.90
21646;DHT22;10984;45.712;4.800;2022-10-16T07:18:49;18.50;99.90
21646;DHT22;10984;45.712;4.800;2022-10-16T07:21:19;18.60;99.90
21646;DHT22;10984;45.712;4.800;2022-10-16T07:26:32;18.60;99.90
21646;DHT22;10984;45.712;4.800;2022-10-16T07:28:58;18.60;99.90
21646;DHT22;10984;45.712;4.800;2022-10-16T07:31:25;18.70;99.90
21646;DHT22;10984;45.712;4.800;2022-10-16T07:33:51;18.70;99.90
21646;DHT22;10984;45.712;4.800;2022-10-16T07:36:18;18.70;99.90
21646;DHT22;10984;45.712;4.800;2022-10-16T07:38:44;18.80;99.90
21646;DHT22;10984;45.712;4.800;2022-10-16T07:41:29;18.90;99.90
21646;DHT22;10984;45.712;4.800;2022-10-16T07:43:55;18.90;99.90
21646;DHT22;10984;45.712;4.800;2022-10-16T07:46:25;18.90;99.90
21646;DHT22;10984;45.712;4.800;2022-10-16T07:48:51;18.90;99.90
21646;DHT22;10984;45.712;4.800;2022-10-16T07:51:19;19.00;99.90
21646;DHT22;10984;45.712;4.800;2022-10-16T07:53:46;19.00;99.90
21646;DHT22;10984;45.712;4.800;2022-10-16T07:56:12;19.00;99.90
21646;DHT22;10984;45.712;4.800;2022-10-16T07:58:38;19.10;99.90
21646;DHT22;10984;45.712;4.800;2022-10-16T08:01:23;19.20;99.90
21646;DHT22;10984;45.712;4.800;2022-10-16T08:03:50;19.20;99.90
21646;DHT22;10984;45.712;4.800;2022-10-16T08:06:17;19.20;99.90
21646;DHT22;10984;45.712;4.800;2022-10-16T08:08:43;19.20;99.90
21646;DHT22;10984;45.712;4.800;2022-10-16T08:11:09;19.20;99.90
21646;DHT22;10984;45.712;4.800;2022-10-16T08:13:35;19.20;99.90
21646;DHT22;10984;45.712;4.800;2022-10-16T08:16:00;19.10;99.90
21646;DHT22;10984;45.712;4.800;2022-10-16T08:18:26;19.10;99.90
21646;DHT22;10984;45.712;4.800;2022-10-16T08:23:56;19.00;99.90
21646;DHT22;10984;45.712;4.800;2022-10-16T08:26:21;19.10;99.90
21646;DHT22;10984;45.712;4.800;2022-10-16T08:28:49;19.20;99.90
21646;DHT22;10984;45.712;4.800;2022-10-16T08:31:16;19.30;99.90
21646;DHT22;10984;45.712;4.800;2022-10-16T08:33:43;19.50;99.90
21646;DHT22;10984;45.712;4.800;2022-10-16T08:36:10;19.60;99.90
21646;DHT22;10984;45.712;4.800;2022-10-16T08:38:36;19.80;99.90
21646;DHT22;10984;45.712;4.800;2022-10-16T08:46:53;20.10;99.90
21646;DHT22;10984;45.712;4.800;2022-10-16T08:49:21;20.10;99.90
21646;DHT22;10984;45.712;4.800;2022-10-16T08:51:50;20.20;99.90
21646;DHT22;10984;45.712;4.800;2022-10-16T08:57:21;20.30;99.90
21646;DHT22;10984;45.712;4.800;2022-10-16T08:59:47;20.40;99.90
21646;DHT22;10984;45.712;4.800;2022-10-16T09:11:47;20.60;99.90
21646;DHT22;10984;45.712;4.800;2022-10-16T09:23:29;20.80;99.90
21646;DHT22;10984;45.712;4.800;2022-10-16T09:25:56;20.80;99.90
21646;DHT22;10984;45.712;4.800;2022-10-16T09:28:24;20.90;99.90
21646;DHT22;10984;45.712;4.800;2022-10-16T09:30:51;21.00;99.90
21646;DHT22;10984;45.712;4.800;2022-10-16T09:33:36;21.10;99.90
21646;DHT22;10984;45.712;4.800;2022-10-16T09:36:05;21.10;99.90
21646;DHT22;10984;45.712;4.800;2022-10-16T09:38:35;21.20;99.90
21646;DHT22;10984;45.712;4.800;2022-10-16T09:41:21;21.20;99.90
21646;DHT22;10984;45.712;4.800;2022-10-16T09:46:36;21.30;99.90
21646;DHT22;10984;45.712;4.800;2022-10-16T09:49:23;21.50;99.90
21646;DHT22;10984;45.712;4.800;2022-10-16T09:51:50;21.50;99.90
21646;DHT22;10984;45.712;4.800;2022-10-16T09:54:19;21.50;99.90
21646;DHT22;10984;45.712;4.800;2022-10-16T09:56:45;21.60;99.90
21646;DHT22;10984;45.712;4.800;2022-10-16T10:02:03;21.70;99.90
21646;DHT22;10984;45.712;4.800;2022-10-16T10:04:39;21.80;99.90
21646;DHT22;10984;45.712;4.800;2022-10-16T10:07:07;21.90;99.90
21646;DHT22;10984;45.712;4.800;2022-10-16T10:09:44;21.90;99.90
21646;DHT22;10984;45.712;4.800;2022-10-16T10:12:30;22.00;99.90
21646;DHT22;10984;45.712;4.800;2022-10-16T10:15:16;22.00;99.90
21646;DHT22;10984;45.712;4.800;2022-10-16T10:20:59;22.10;99.90
21646;DHT22;10984;45.712;4.800;2022-10-16T10:23:27;22.10;99.90
21646;DHT22;10984;45.712;4.800;2022-10-16T10:44:16;22.20;99.90
21646;DHT22;10984;45.712;4.800;2022-10-16T10:53:35;22.30;99.90
21646;DHT22;10984;45.712;4.800;2022-10-16T11:10:57;22.30;99.90
21646;DHT22;10984;45.712;4.800;2022-10-16T11:25:37;22.50;99.90
21646;DHT22;10984;45.712;4.800;2022-10-16T11:31:09;22.50;99.90
21646;DHT22;10984;45.712;4.800;2022-10-16T11:33:41;22.60;99.90
21646;DHT22;10984;45.712;4.800;2022-10-16T11:39:19;22.50;99.90
21646;DHT22;10984;45.712;4.800;2022-10-16T11:45:09;22.50;99.90
21646;DHT22;10984;45.712;4.800;2022-10-16T11:53:45;22.60;99.90
21646;DHT22;10984;45.712;4.800;2022-10-16T12:04:53;22.40;99.90
21646;DHT22;10984;45.712;4.800;2022-10-16T12:07:28;22.50;99.90
21646;DHT22;10984;45.712;4.800;2022-10-16T12:09:58;22.50;99.90
21646;DHT22;10984;45.712;4.800;2022-10-16T12:18:03;22.50;99.90
21646;DHT22;10984;45.712;4.800;2022-10-16T12:20:54;22.50;99.90
21646;DHT22;10984;45.712;4.800;2022-10-16T12:23:24;22.50;99.90
21646;DHT22;10984;45.712;4.800;2022-10-16T12:26:09;22.50;99.90
21646;DHT22;10984;45.712;4.800;2022-10-16T12:28:35;22.60;99.90
21646;DHT22;10984;45.712;4.800;2022-10-16T12:31:04;22.50;99.90
21646;DHT22;10984;45.712;4.800;2022-10-16T12:36:34;22.40;99.90
21646;DHT22;10984;45.712;4.800;2022-10-16T12:39:01;22.50;99.90
21646;DHT22;10984;45.712;4.800;2022-10-16T12:41:29;22.50;99.90
21646;DHT22;10984;45.712;4.800;2022-10-16T12:43:56;22.50;99.90
21646;DHT22;10984;45.712;4.800;2022-10-16T12:46:34;22.50;99.90
21646;DHT22;10984;45.712;4.800;2022-10-16T12:49:21;22.50;99.90
21646;DHT22;10984;45.712;4.800;2022-10-16T12:51:48;22.50;99.90
21646;DHT22;10984;45.712;4.800;2022-10-16T12:54:17;22.50;99.90
21646;DHT22;10984;45.712;4.800;2022-10-16T13:28:34;22.30;99.90
21646;DHT22;10984;45.712;4.800;2022-10-16T13:31:02;22.30;99.90
21646;DHT22;10984;45.712;4.800;2022-10-16T13:36:42;22.40;99.90
21646;DHT22;10984;45.712;4.800;2022-10-16T13:39:27;22.50;99.90
21646;DHT22;10984;45.712;4.800;2022-10-16T13:44:56;22.60;99.90
21646;DHT22;10984;45.712;4.800;2022-10-16T13:47:40;22.50;99.90
21646;DHT22;10984;45.712;4.800;2022-10-16T13:50:12;22.50;99.90
21646;DHT22;10984;45.712;4.800;2022-10-16T13:52:38;22.50;99.90
21646;DHT22;10984;45.712;4.800;2022-10-16T13:55:22;22.40;99.90
21646;DHT22;10984;45.712;4.800;2022-10-16T13:57:48;22.40;99.90
21646;DHT22;10984;45.712;4.800;2022-10-16T14:00:32;22.30;99.90
21646;DHT22;10984;45.712;4.800;2022-10-16T14:03:13;22.30;99.90
21646;DHT22;10984;45.712;4.800;2022-10-16T14:06:00;22.30;99.90
21646;DHT22;10984;45.712;4.800;2022-10-16T14:08:29;22.30;99.90
21646;DHT22;10984;45.712;4.800;2022-10-16T14:10:58;22.30;99.90
21646;DHT22;10984;45.712;4.800;2022-10-16T14:13:44;22.20;99.90
21646;DHT22;10984;45.712;4.800;2022-10-16T14:16:26;22.20;99.90
21646;DHT22;10984;45.712;4.800;2022-10-16T14:19:04;22.20;99.90
21646;DHT22;10984;45.712;4.800;2022-10-16T14:21:51;22.30;99.90
21646;DHT22;10984;45.712;4.800;2022-10-16T14:24:36;22.30;99.90
21646;DHT22;10984;45.712;4.800;2022-10-16T14:27:20;22.20;99.90
21646;DHT22;10984;45.712;4.800;2022-10-16T14:29:49;22.20;99.90
21646;DHT22;10984;45.712;4.800;2022-10-16T14:32:26;22.10;99.90
21646;DHT22;10984;45.712;4.800;2022-10-16T14:37:57;22.00;99.90
21646;DHT22;10984;45.712;4.800;2022-10-16T14:40:26;21.90;99.90
21646;DHT22;10984;45.712;4.800;2022-10-16T14:42:54;21.90;99.90
21646;DHT22;10984;45.712;4.800;2022-10-16T14:45:39;21.90;99.90
21646;DHT22;10984;45.712;4.800;2022-10-16T14:48:17;21.90;99.90
21646;DHT22;10984;45.712;4.800;2022-10-16T14:50:45;21.90;99.90
21646;DHT22;10984;45.712;4.800;2022-10-16T14:53:12;21.90;99.90
21646;DHT22;10984;45.712;4.800;2022-10-16T14:55:39;21.90;99.90
21646;DHT22;10984;45.712;4.800;2022-10-16T14:58:20;21.90;99.90
21646;DHT22;10984;45.712;4.800;2022-10-16T15:00:47;21.90;99.90
21646;DHT22;10984;45.712;4.800;2022-10-16T15:03:14;21.80;99.90
21646;DHT22;10984;45.712;4.800;2022-10-16T15:05:40;21.80;99.90
21646;DHT22;10984;45.712;4.800;2022-10-16T15:08:07;21.70;99.90
21646;DHT22;10984;45.712;4.800;2022-10-16T15:10:38;21.70;99.90
21646;DHT22;10984;45.712;4.800;2022-10-16T15:13:05;21.70;99.90
21646;DHT22;10984;45.712;4.800;2022-10-16T15:15:51;21.70;99.90
21646;DHT22;10984;45.712;4.800;2022-10-16T15:18:18;21.70;99.90
21646;DHT22;10984;45.712;4.800;2022-10-16T15:20:49;21.60;99.90
21646;DHT22;10984;45.712;4.800;2022-10-16T15:23:33;21.60;99.90
21646;DHT22;10984;45.712;4.800;2022-10-16T15:26:00;21.50;99.90
21646;DHT22;10984;45.712;4.800;2022-10-16T15:28:27;21.50;99.90
21646;DHT22;10984;45.712;4.800;2022-10-16T15:30:56;21.50;99.90
21646;DHT22;10984;45.712;4.800;2022-10-16T15:33:25;21.40;99.90
21646;DHT22;10984;45.712;4.800;2022-10-16T15:35:54;21.30;99.90
21646;DHT22;10984;45.712;4.800;2022-10-16T15:38:22;21.30;99.90
21646;DHT22;10984;45.712;4.800;2022-10-16T15:40:49;21.20;99.90
21646;DHT22;10984;45.712;4.800;2022-10-16T15:43:16;21.10;99.90
21646;DHT22;10984;45.712;4.800;2022-10-16T15:45:43;21.10;99.90
21646;DHT22;10984;45.712;4.800;2022-10-16T15:48:11;21.00;99.90
21646;DHT22;10984;45.712;4.800;2022-10-16T15:50:39;20.90;99.90
21646;DHT22;10984;45.712;4.800;2022-10-16T15:53:05;20.90;99.90
21646;DHT22;10984;45.712;4.800;2022-10-16T15:55:32;20.80;99.90
21646;DHT22;10984;45.712;4.800;2022-10-16T15:57:59;20.80;99.90
21646;DHT22;10984;45.712;4.800;2022-10-16T16:00:26;20.70;99.90
21646;DHT22;10984;45.712;4.800;2022-10-16T16:02:53;20.70;99.90
21646;DHT22;10984;45.712;4.800;2022-10-16T16:05:21;20.60;99.90
21646;DHT22;10984;45.712;4.800;2022-10-16T16:07:48;20.60;99.90
21646;DHT22;10984;45.712;4.800;2022-10-16T16:10:15;20.60;99.90
21646;DHT22;10984;45.712;4.800;2022-10-16T16:12:41;20.60;99.90
21646;DHT22;10984;45.712;4.800;2022-10-16T16:15:08;20.50;99.90
21646;DHT22;10984;45.712;4.800;2022-10-16T16:17:35;20.50;99.90
21646;DHT22;10984;45.712;4.800;2022-10-16T16:20:03;20.50;99.90
21646;DHT22;10984;45.712;4.800;2022-10-16T16:22:30;20.60;99.90
21646;DHT22;10984;45.712;4.800;2022-10-16T16:24:56;20.60;99.90
21646;DHT22;10984;45.712;4.800;2022-10-16T16:27:23;20.60;99.90
21646;DHT22;10984;45.712;4.800;2022-10-16T16:29:50;20.50;99.90
21646;DHT22;10984;45.712;4.800;2022-10-16T16:32:17;20.50;99.90
21646;DHT22;10984;45.712;4.800;2022-10-16T16:34:43;20.40;99.90
21646;DHT22;10984;45.712;4.800;2022-10-16T16:37:09;20.40;99.90
21646;DHT22;10984;45.712;4.800;2022-10-16T16:39:34;20.30;99.90
21646;DHT22;10984;45.712;4.800;2022-10-16T16:42:00;20.30;99.90
21646;DHT22;10984;45.712;4.800;2022-10-16T16:44:28;20.20;99.90
21646;DHT22;10984;45.712;4.800;2022-10-16T16:46:53;20.10;99.90
21646;DHT22;10984;45.712;4.800;2022-10-16T16:49:20;20.10;99.90
21646;DHT22;10984;45.712;4.800;2022-10-16T16:51:45;20.00;99.90
21646;DHT22;10984;45.712;4.800;2022-10-16T16:54:11;19.90;99.90
21646;DHT22;10984;45.712;4.800;2022-10-16T16:56:38;19.90;99.90
21646;DHT22;10984;45.712;4.800;2022-10-16T16:59:04;19.90;99.90
21646;DHT22;10984;45.712;4.800;2022-10-16T17:01:30;19.90;99.90
21646;DHT22;10984;45.712;4.800;2022-10-16T17:03:57;19.80;99.90
21646;DHT22;10984;45.712;4.800;2022-10-16T17:06:27;19.70;99.90
21646;DHT22;10984;45.712;4.800;2022-10-16T17:08:53;19.70;99.90
21646;DHT22;10984;45.712;4.800;2022-10-16T17:11:21;19.70;99.90
21646;DHT22;10984;45.712;4.800;2022-10-16T17:13:48;19.60;99.90
21646;DHT22;10984;45.712;4.800;2022-10-16T17:16:14;19.60;99.90
21646;DHT22;10984;45.712;4.800;2022-10-16T17:18:39;19.60;99.90
21646;DHT22;10984;45.712;4.800;2022-10-16T17:21:07;19.50;99.90
21646;DHT22;10984;45.712;4.800;2022-10-16T17:23:35;19.50;99.90
21646;DHT22;10984;45.712;4.800;2022-10-16T17:26:19;19.50;99.90
21646;DHT22;10984;45.712;4.800;2022-10-16T17:28:45;19.40;99.90
21646;DHT22;10984;45.712;4.800;2022-10-16T17:33:57;19.30;99.90
21646;DHT22;10984;45.712;4.800;2022-10-16T17:36:23;19.30;99.90
21646;DHT22;10984;45.712;4.800;2022-10-16T17:38:50;19.20;99.90
21646;DHT22;10984;45.712;4.800;2022-10-16T17:41:34;19.20;99.90
21646;DHT22;10984;45.712;4.800;2022-10-16T17:44:01;19.10;99.90
21646;DHT22;10984;45.712;4.800;2022-10-16T17:46:28;19.20;99.90
21646;DHT22;10984;45.712;4.800;2022-10-16T17:48:54;19.20;99.90
21646;DHT22;10984;45.712;4.800;2022-10-16T17:51:22;19.20;99.90
21646;DHT22;10984;45.712;4.800;2022-10-16T17:53:50;19.20;99.90
21646;DHT22;10984;45.712;4.800;2022-10-16T17:56:16;19.10;99.90
21646;DHT22;10984;45.712;4.800;2022-10-16T17:58:42;19.10;99.90
21646;DHT22;10984;45.712;4.800;2022-10-16T18:04:14;19.00;99.90
21646;DHT22;10984;45.712;4.800;2022-10-16T18:06:41;19.00;99.90
21646;DHT22;10984;45.712;4.800;2022-10-16T18:09:09;19.00;99.90
21646;DHT22;10984;45.712;4.800;2022-10-16T18:11:36;18.90;99.90
21646;DHT22;10984;45.712;4.800;2022-10-16T18:14:02;18.80;99.90
21646;DHT22;10984;45.712;4.800;2022-10-16T18:16:30;18.80;99.90
21646;DHT22;10984;45.712;4.800;2022-10-16T18:18:56;18.70;99.90
21646;DHT22;10984;45.712;4.800;2022-10-16T18:21:23;18.70;99.90
21646;DHT22;10984;45.712;4.800;2022-10-16T18:23:52;18.70;99.90
21646;DHT22;10984;45.712;4.800;2022-10-16T18:26:20;18.60;99.90
21646;DHT22;10984;45.712;4.800;2022-10-16T18:28:46;18.60;99.90
21646;DHT22;10984;45.712;4.800;2022-10-16T18:31:15;18.50;99.90
21646;DHT22;10984;45.712;4.800;2022-10-16T18:33:43;18.60;99.90
21646;DHT22;10984;45.712;4.800;2022-10-16T18:36:14;18.60;99.90
21646;DHT22;10984;45.712;4.800;2022-10-16T18:38:40;18.50;99.90
21646;DHT22;10984;45.712;4.800;2022-10-16T18:41:07;18.60;99.90
21646;DHT22;10984;45.712;4.800;2022-10-16T18:43:36;18.60;99.90
21646;DHT22;10984;45.712;4.800;2022-10-16T18:46:14;18.60;99.90
21646;DHT22;10984;45.712;4.800;2022-10-16T18:48:41;18.60;99.90
21646;DHT22;10984;45.712;4.800;2022-10-16T18:54:03;18.70;99.90
21646;DHT22;10984;45.712;4.800;2022-10-16T18:56:31;18.70;99.90
21646;DHT22;10984;45.712;4.800;2022-10-16T18:59:16;18.60;99.90
21646;DHT22;10984;45.712;4.800;2022-10-16T19:01:42;18.60;99.90
21646;DHT22;10984;45.712;4.800;2022-10-16T19:04:11;18.60;99.90
21646;DHT22;10984;45.712;4.800;2022-10-16T19:06:43;18.70;99.90
21646;DHT22;10984;45.712;4.800;2022-10-16T19:09:11;18.80;99.90
21646;DHT22;10984;45.712;4.800;2022-10-16T19:11:38;18.80;99.90
21646;DHT22;10984;45.712;4.800;2022-10-16T19:14:05;18.80;99.90